createdAt,value
2023-01-19T00:28:32.830Z,5.1
2023-01-19T00:58:50.671Z,6.1
2023-01-19T01:29:08.782Z,6.4
2023-01-19T01:59:26.184Z,7.3
2023-01-19T03:00:03.135Z,6.2
2023-01-19T03:30:22.056Z,8.2
2023-01-19T04:00:41.971Z,6.3
2023-01-19T04:31:00.677Z,7.7
2023-01-19T05:01:18.833Z,6.8
2023-01-19T05:31:37.129Z,8.5
2023-01-19T06:01:57.196Z,8.3
2023-01-19T06:32:14.098Z,9.3
2023-01-19T07:02:31.742Z,9.6
2023-01-19T07:32:50.482Z,8.4
2023-01-19T08:03:06.880Z,9.6
2023-01-19T08:33:42.368Z,7.7
2023-01-19T09:04:01.505Z,8.6
2023-01-19T09:34:23.833Z,4.6
2023-01-19T10:04:43.871Z,4.8
2023-01-19T10:34:59.899Z,3.9
2023-01-19T11:05:18.200Z,4.3
2023-01-19T11:35:36.024Z,3.7
2023-01-19T12:05:53.910Z,3.9
2023-01-19T12:36:12.578Z,3.5
2023-01-19T13:06:30.309Z,3.7
2023-01-19T13:36:49.073Z,3.9
2023-01-19T14:07:04.967Z,3.2
2023-01-19T14:37:24.029Z,3.3
2023-01-19T15:07:39.958Z,3.1
2023-01-19T15:37:56.583Z,3.3
2023-01-19T16:08:13.790Z,3
2023-01-19T16:38:30.802Z,3.4
2023-01-19T17:08:48.189Z,3.4
2023-01-19T17:39:04.630Z,3.1
2023-01-19T18:09:26.667Z,3.5
2023-01-19T18:39:43.816Z,4.5
2023-01-19T19:10:05.790Z,4.9
2023-01-19T19:40:24.500Z,7.2
2023-01-19T20:10:43.012Z,6.2
2023-01-19T20:41:01.126Z,5.8
2023-01-19T21:11:17.683Z,6.3
2023-01-19T21:41:35.414Z,6.9
2023-01-19T22:11:51.347Z,7.2
2023-01-19T22:42:08.641Z,7.8
2023-01-19T23:12:24.875Z,8.5
2023-01-19T23:42:42.810Z,8.6
